createdAt,value
2018-06-28T00:00:51.024Z,66.50
2018-06-28T00:03:21.314Z,64.77
2018-06-28T00:05:51.509Z,68.47
2018-06-28T00:08:21.864Z,64.07
2018-06-28T00:10:52.928Z,66.87
2018-06-28T00:13:24.117Z,63.50
2018-06-28T00:15:54.527Z,65.40
2018-06-28T00:18:24.779Z,64.67
2018-06-28T00:20:55.349Z,66.63
2018-06-28T00:23:25.604Z,70.20
2018-06-28T00:25:56.167Z,60.97
2018-06-28T00:28:26.364Z,63.70
2018-06-28T00:30:56.991Z,64.33
2018-06-28T00:33:27.772Z,65.63
2018-06-28T00:35:58.249Z,64.43
2018-06-28T00:38:28.232Z,65.37
2018-06-28T00:40:59.668Z,60.00
2018-06-28T00:43:29.684Z,64.70
2018-06-28T00:46:00.473Z,63.97
2018-06-28T00:48:30.488Z,64.60
2018-06-28T00:51:00.791Z,62.07
2018-06-28T00:53:30.918Z,67.67
2018-06-28T00:56:01.333Z,65.83
2018-06-28T00:58:31.629Z,63.77
2018-06-28T01:01:01.890Z,66.40
2018-06-28T01:03:32.337Z,64.50
2018-06-28T01:06:02.885Z,65.37
2018-06-28T01:08:33.311Z,64.97
2018-06-28T01:11:03.703Z,64.60
2018-06-28T01:13:34.020Z,63.87
2018-06-28T01:16:04.190Z,65.33
2018-06-28T01:18:34.562Z,62.37
2018-06-28T01:21:05.288Z,64.57
2018-06-28T01:23:35.431Z,62.80
2018-06-28T01:26:06.299Z,62.80
2018-06-28T01:28:36.825Z,63.27
2018-06-28T01:31:07.254Z,66.40
2018-06-28T01:33:37.727Z,63.13
2018-06-28T01:36:08.277Z,65.53
2018-06-28T01:38:38.623Z,64.37
2018-06-28T01:41:08.927Z,66.40
2018-06-28T01:43:46.137Z,63.67
2018-06-28T01:46:17.709Z,64.17
2018-06-28T01:48:47.856Z,64.63
2018-06-28T01:51:17.957Z,62.03
2018-06-28T01:53:48.191Z,61.93
2018-06-28T01:56:18.651Z,64.63
2018-06-28T01:58:49.001Z,63.33
2018-06-28T02:01:19.214Z,64.33
2018-06-28T02:03:49.605Z,64.77
2018-06-28T02:06:20.254Z,62.97
2018-06-28T02:08:51.129Z,63.03
2018-06-28T02:11:21.394Z,63.53
2018-06-28T02:13:51.846Z,62.87
2018-06-28T02:16:22.423Z,62.70
2018-06-28T02:18:52.649Z,60.17
2018-06-28T02:21:23.426Z,61.80
2018-06-28T02:23:54.017Z,61.77
2018-06-28T02:26:24.480Z,67.93
2018-06-28T02:28:54.732Z,62.03
2018-06-28T02:31:24.937Z,63.93
2018-06-28T02:33:55.253Z,63.10
2018-06-28T02:36:25.316Z,66.10
2018-06-28T02:38:55.614Z,61.27
2018-06-28T02:41:25.738Z,61.87
2018-06-28T02:43:56.326Z,61.67
2018-06-28T02:46:26.761Z,63.27
2018-06-28T02:48:57.061Z,61.50
2018-06-28T02:51:27.644Z,62.83
2018-06-28T02:53:57.795Z,63.10
2018-06-28T02:56:28.610Z,65.20
2018-06-28T02:58:58.818Z,61.50
2018-06-28T03:01:28.733Z,63.80
2018-06-28T03:03:59.191Z,60.53
2018-06-28T03:06:29.218Z,63.17
2018-06-28T03:09:00.210Z,63.70
2018-06-28T03:11:30.533Z,62.77
2018-06-28T03:14:00.940Z,61.57
2018-06-28T03:16:31.407Z,62.23
2018-06-28T03:19:01.895Z,63.20
2018-06-28T03:21:38.913Z,60.07
2018-06-28T03:24:09.601Z,62.43
2018-06-28T03:26:39.871Z,59.17
2018-06-28T03:29:10.197Z,61.20
2018-06-28T03:31:40.534Z,59.53
2018-06-28T03:34:11.317Z,61.97
2018-06-28T03:36:41.787Z,62.47
2018-06-28T03:39:14.158Z,61.10
2018-06-28T03:41:44.494Z,60.50
2018-06-28T03:44:14.900Z,60.77
2018-06-28T03:46:45.134Z,61.30
2018-06-28T03:49:15.310Z,62.27
2018-06-28T03:51:45.532Z,63.37
2018-06-28T03:54:15.861Z,60.57
2018-06-28T03:56:46.023Z,61.50
2018-06-28T03:59:16.551Z,59.20
2018-06-28T04:01:46.723Z,58.43
2018-06-28T04:04:17.171Z,60.33
2018-06-28T04:06:47.453Z,62.80
2018-06-28T04:09:18.019Z,62.60
2018-06-28T04:11:48.180Z,64.90
2018-06-28T04:14:18.464Z,60.60
2018-06-28T04:16:48.941Z,63.40
2018-06-28T04:19:18.902Z,61.90
2018-06-28T04:21:49.254Z,62.67
2018-06-28T04:24:19.408Z,60.93
2018-06-28T04:26:49.897Z,61.63
2018-06-28T04:29:20.180Z,62.13
2018-06-28T04:31:50.289Z,62.60
2018-06-28T04:34:20.549Z,60.77
2018-06-28T04:36:51.754Z,60.67
2018-06-28T04:39:22.159Z,63.13
2018-06-28T04:41:52.623Z,65.63
2018-06-28T04:44:22.985Z,61.63
2018-06-28T04:46:53.639Z,59.63
2018-06-28T04:49:23.861Z,60.17
2018-06-28T04:51:54.085Z,61.07
2018-06-28T04:54:24.556Z,61.97
2018-06-28T04:56:55.113Z,63.60
2018-06-28T04:59:25.423Z,64.20
2018-06-28T05:01:55.474Z,63.77
2018-06-28T05:04:25.856Z,64.80
2018-06-28T05:06:56.008Z,67.23
2018-06-28T05:09:26.346Z,62.67
2018-06-28T05:11:56.720Z,64.07
2018-06-28T05:14:26.843Z,65.33
2018-06-28T05:16:57.738Z,62.57
2018-06-28T05:19:27.888Z,65.37
2018-06-28T05:21:58.146Z,64.80
2018-06-28T05:24:29.005Z,64.63
2018-06-28T05:26:59.179Z,61.17
2018-06-28T05:29:29.651Z,63.90
2018-06-28T05:31:59.652Z,65.47
2018-06-28T05:34:29.846Z,67.13
2018-06-28T05:37:00.147Z,64.40
2018-06-28T05:39:30.870Z,65.23
2018-06-28T05:42:01.134Z,65.83
2018-06-28T05:44:31.485Z,64.97
2018-06-28T05:47:01.726Z,62.90
2018-06-28T05:49:31.892Z,64.40
2018-06-28T05:52:02.695Z,62.33
2018-06-28T05:54:33.012Z,65.77
2018-06-28T05:57:03.486Z,61.63
2018-06-28T05:59:33.755Z,64.33
2018-06-28T06:02:04.234Z,62.77
2018-06-28T06:04:34.646Z,65.73
2018-06-28T06:07:05.558Z,63.80
2018-06-28T06:09:35.759Z,64.27
2018-06-28T06:12:06.380Z,65.00
2018-06-28T06:14:36.581Z,69.57
2018-06-28T06:17:07.158Z,65.40
2018-06-28T06:19:37.604Z,64.83
2018-06-28T06:22:07.941Z,66.00
2018-06-28T06:24:38.253Z,64.23
2018-06-28T06:27:09.478Z,65.83
2018-06-28T06:29:40.092Z,65.50
2018-06-28T06:32:10.812Z,65.33
2018-06-28T06:34:41.724Z,67.87
2018-06-28T06:37:12.512Z,64.57
2018-06-28T06:39:43.193Z,65.60
2018-06-28T06:42:13.597Z,66.13
2018-06-28T06:44:44.755Z,65.60
2018-06-28T06:47:15.069Z,69.47
2018-06-28T06:49:45.432Z,68.07
2018-06-28T06:52:16.213Z,67.97
2018-06-28T06:54:47.649Z,67.10
2018-06-28T06:57:19.150Z,69.80
2018-06-28T06:59:49.621Z,67.43
2018-06-28T07:02:20.214Z,69.07
2018-06-28T07:04:50.809Z,67.77
2018-06-28T07:07:21.338Z,66.97
2018-06-28T07:09:52.733Z,71.63
2018-06-28T07:12:23.359Z,68.33
2018-06-28T07:14:54.344Z,68.47
2018-06-28T07:17:24.712Z,67.77
2018-06-28T07:19:55.605Z,69.60
2018-06-28T07:22:26.123Z,69.00
2018-06-28T07:24:57.299Z,75.00
2018-06-28T07:27:28.042Z,67.27
2018-06-28T07:30:00.505Z,68.20
2018-06-28T07:32:30.472Z,73.03
2018-06-28T07:35:02.170Z,71.20
2018-06-28T07:37:32.690Z,68.80
2018-06-28T07:40:03.867Z,67.90
2018-06-28T07:42:35.368Z,67.53
2018-06-28T07:45:06.102Z,68.27
2018-06-28T07:47:36.717Z,67.00
2018-06-28T07:50:07.835Z,72.07
2018-06-28T07:52:38.032Z,66.03
2018-06-28T07:55:08.196Z,66.10
2018-06-28T07:57:38.458Z,71.50
2018-06-28T08:00:09.229Z,71.30
2018-06-28T08:02:39.781Z,69.87
2018-06-28T08:05:10.003Z,68.60
2018-06-28T08:07:40.760Z,67.93
2018-06-28T08:10:11.502Z,69.10
2018-06-28T08:12:42.192Z,69.87
2018-06-28T08:15:12.438Z,69.73
2018-06-28T08:17:42.596Z,68.97
2018-06-28T08:20:12.854Z,68.03
2018-06-28T08:22:43.119Z,69.23
2018-06-28T08:25:13.388Z,70.13
2018-06-28T08:27:43.691Z,72.03
2018-06-28T08:30:13.997Z,69.63
2018-06-28T08:32:45.221Z,70.87
2018-06-28T08:35:15.771Z,115.07
2018-06-28T08:37:49.063Z,85.30
2018-06-28T08:40:19.425Z,76.20
2018-06-28T08:42:49.717Z,74.27
2018-06-28T08:45:20.299Z,71.00
2018-06-28T08:47:50.532Z,72.67
2018-06-28T08:50:20.862Z,75.47
2018-06-28T08:52:51.437Z,73.53
2018-06-28T08:55:21.522Z,74.43
2018-06-28T08:57:51.762Z,72.73
2018-06-28T09:00:21.881Z,77.60
2018-06-28T09:02:52.163Z,70.87
2018-06-28T09:05:22.616Z,71.53
2018-06-28T09:07:52.966Z,71.33
2018-06-28T09:10:23.159Z,71.00
2018-06-28T09:12:53.348Z,72.43
2018-06-28T09:15:23.751Z,69.77
2018-06-28T09:17:53.829Z,71.73
2018-06-28T09:20:24.013Z,77.30
2018-06-28T09:22:54.592Z,75.30
2018-06-28T09:25:24.805Z,70.80
2018-06-28T09:27:55.041Z,73.90
2018-06-28T09:30:25.270Z,71.70
2018-06-28T09:32:55.585Z,76.43
2018-06-28T09:35:25.689Z,78.23
2018-06-28T09:37:55.852Z,71.73
2018-06-28T09:40:26.157Z,78.80
2018-06-28T09:42:56.542Z,75.17
2018-06-28T09:45:26.989Z,75.43
2018-06-28T09:47:57.140Z,75.43
2018-06-28T09:50:28.336Z,76.60
2018-06-28T09:52:59.053Z,74.40
2018-06-28T09:55:29.665Z,73.27
2018-06-28T09:58:01.061Z,74.70
2018-06-28T10:00:36.709Z,72.70
2018-06-28T10:03:07.038Z,73.23
2018-06-28T10:05:37.881Z,74.63
2018-06-28T10:08:08.832Z,78.13
2018-06-28T10:10:39.633Z,76.23
2018-06-28T10:13:09.849Z,73.37
2018-06-28T10:15:40.615Z,76.80
2018-06-28T10:18:11.608Z,78.57
2018-06-28T10:20:42.510Z,75.53
2018-06-28T10:23:14.757Z,74.63
2018-06-28T10:25:45.933Z,77.50
2018-06-28T10:28:17.905Z,73.83
2018-06-28T10:30:48.754Z,76.00
2018-06-28T10:33:20.090Z,73.20
2018-06-28T10:35:50.553Z,78.80
2018-06-28T10:38:21.361Z,75.27
2018-06-28T10:40:52.169Z,75.10
2018-06-28T10:43:22.577Z,77.70
2018-06-28T10:45:52.783Z,76.50
2018-06-28T10:48:23.975Z,74.60
2018-06-28T10:50:54.292Z,74.97
2018-06-28T10:53:24.448Z,73.57
2018-06-28T10:55:54.998Z,76.80
2018-06-28T10:58:25.168Z,76.23
2018-06-28T11:00:55.268Z,143.20
2018-06-28T11:03:25.786Z,79.47
2018-06-28T11:05:56.303Z,74.90
2018-06-28T11:08:27.240Z,78.53
2018-06-28T11:10:57.968Z,76.23
2018-06-28T11:13:28.785Z,74.47
2018-06-28T11:16:00.895Z,77.80
2018-06-28T11:18:31.384Z,79.27
2018-06-28T11:21:02.739Z,73.73
2018-06-28T11:23:34.103Z,76.60
2018-06-28T11:26:04.710Z,76.80
2018-06-28T11:28:35.316Z,78.67
2018-06-28T11:31:05.617Z,75.30
2018-06-28T11:33:36.033Z,76.80
2018-06-28T11:36:06.624Z,78.43
2018-06-28T11:38:37.092Z,76.83
2018-06-28T11:41:08.028Z,77.40
2018-06-28T11:43:39.695Z,77.73
2018-06-28T11:46:10.022Z,75.70
2018-06-28T11:48:40.568Z,76.60
2018-06-28T11:51:11.020Z,78.33
2018-06-28T11:53:41.808Z,82.53
2018-06-28T11:56:12.205Z,79.07
2018-06-28T11:58:42.567Z,77.63
2018-06-28T12:01:12.747Z,78.77
2018-06-28T12:03:43.217Z,76.47
2018-06-28T12:06:13.833Z,78.43
2018-06-28T12:08:44.293Z,81.70
2018-06-28T12:11:14.551Z,77.53
2018-06-28T12:13:44.841Z,76.67
2018-06-28T12:16:14.937Z,79.57
2018-06-28T12:18:45.736Z,76.73
2018-06-28T12:21:16.779Z,74.93
2018-06-28T12:23:47.074Z,75.97
2018-06-28T12:26:17.840Z,79.77
2018-06-28T12:28:48.638Z,78.10
2018-06-28T12:31:19.375Z,76.00
2018-06-28T12:33:49.668Z,75.37
2018-06-28T12:36:20.012Z,79.27
2018-06-28T12:38:50.411Z,80.60
2018-06-28T12:41:21.593Z,77.37
2018-06-28T12:43:51.605Z,77.77
2018-06-28T12:46:32.410Z,76.93
2018-06-28T12:49:02.929Z,77.67
2018-06-28T12:51:49.946Z,79.13
2018-06-28T12:54:26.803Z,77.20
2018-06-28T12:56:57.228Z,74.83
2018-06-28T12:59:27.489Z,75.93
2018-06-28T13:01:57.673Z,75.73
2018-06-28T13:04:27.911Z,76.77
2018-06-28T13:06:59.193Z,76.40
2018-06-28T13:09:29.256Z,74.93
2018-06-28T13:12:00.333Z,80.23
2018-06-28T13:14:30.937Z,76.40
2018-06-28T13:17:02.207Z,74.20
2018-06-28T13:19:32.504Z,75.47
2018-06-28T13:22:04.140Z,75.53
2018-06-28T13:24:34.577Z,76.67
2018-06-28T13:27:05.238Z,78.13
2018-06-28T13:29:35.979Z,77.93
2018-06-28T13:32:06.278Z,76.33
2018-06-28T13:34:36.808Z,76.40
2018-06-28T13:37:07.516Z,74.27
2018-06-28T13:39:38.937Z,74.20
2018-06-28T13:42:10.025Z,75.80
2018-06-28T13:44:40.766Z,77.27
2018-06-28T13:47:11.763Z,77.47
2018-06-28T13:49:42.335Z,77.57
2018-06-28T13:52:12.607Z,77.13
2018-06-28T13:54:43.364Z,77.00
2018-06-28T13:57:14.519Z,76.70
2018-06-28T13:59:45.607Z,77.23
2018-06-28T14:02:16.142Z,80.90
2018-06-28T14:04:46.718Z,78.63
2018-06-28T14:07:16.935Z,81.80
2018-06-28T14:09:47.184Z,79.77
2018-06-28T14:12:18.186Z,82.07
2018-06-28T14:14:48.763Z,79.95
2018-06-28T14:17:20.501Z,81.90
2018-06-28T14:19:51.012Z,81.40
2018-06-28T14:22:21.844Z,103.47
2018-06-28T14:24:52.686Z,80.30
2018-06-28T14:27:23.584Z,83.37
2018-06-28T14:29:54.057Z,82.53
2018-06-28T14:32:24.520Z,81.25
2018-06-28T14:34:55.122Z,89.20
2018-06-28T14:37:26.314Z,83.15
2018-06-28T14:39:57.174Z,82.00
2018-06-28T14:42:28.005Z,84.80
2018-06-28T14:44:58.976Z,83.50
2018-06-28T14:47:29.388Z,83.35
2018-06-28T14:49:59.978Z,81.50
2018-06-28T14:52:30.979Z,83.90
2018-06-28T14:55:02.009Z,84.55
2018-06-28T14:57:32.596Z,82.92
2018-06-28T15:00:03.835Z,89.03
2018-06-28T15:02:34.372Z,85.47
2018-06-28T15:05:05.453Z,84.67
2018-06-28T15:07:36.277Z,81.28
2018-06-28T15:10:07.057Z,82.95
2018-06-28T15:12:37.022Z,84.40
2018-06-28T15:15:07.626Z,83.30
2018-06-28T15:17:38.416Z,81.02
2018-06-28T15:20:09.278Z,81.45
2018-06-28T15:22:41.297Z,83.22
2018-06-28T15:25:12.892Z,81.78
2018-06-28T15:27:43.769Z,82.12
2018-06-28T15:30:14.002Z,86.28
2018-06-28T15:32:44.538Z,85.85
2018-06-28T15:35:15.581Z,82.25
2018-06-28T15:37:46.418Z,83.90
2018-06-28T15:40:16.815Z,81.37
2018-06-28T15:42:47.046Z,82.85
2018-06-28T15:45:17.686Z,82.70
2018-06-28T15:47:48.712Z,83.78
2018-06-28T15:50:19.736Z,82.53
2018-06-28T15:52:49.957Z,85.42
2018-06-28T15:55:20.479Z,83.70
2018-06-28T15:57:50.638Z,82.95
2018-06-28T16:00:20.920Z,85.50
2018-06-28T16:02:51.458Z,81.60
2018-06-28T16:05:22.299Z,83.95
2018-06-28T16:07:52.633Z,89.58
2018-06-28T16:10:22.953Z,86.00
2018-06-28T16:12:54.164Z,85.53
2018-06-28T16:15:24.589Z,83.35
2018-06-28T16:17:55.226Z,84.00
2018-06-28T16:20:26.287Z,80.65
2018-06-28T16:22:57.301Z,82.45
2018-06-28T16:25:27.489Z,83.25
2018-06-28T16:27:57.745Z,81.57
2018-06-28T16:30:28.227Z,80.65
2018-06-28T16:32:58.596Z,82.62
2018-06-28T16:35:29.472Z,83.00
2018-06-28T16:37:59.901Z,91.22
2018-06-28T16:40:31.141Z,82.08
2018-06-28T16:43:01.684Z,82.30
2018-06-28T16:45:32.730Z,85.90
2018-06-28T16:48:03.775Z,83.67
2018-06-28T16:50:34.868Z,86.35
2018-06-28T16:53:06.009Z,85.65
2018-06-28T16:55:36.346Z,83.70
2018-06-28T16:58:07.521Z,84.25
2018-06-28T17:00:39.411Z,83.67
2018-06-28T17:03:14.072Z,84.03
2018-06-28T17:05:44.859Z,83.95
2018-06-28T17:08:14.974Z,85.57
2018-06-28T17:10:45.411Z,85.47
2018-06-28T17:13:15.774Z,80.22
2018-06-28T17:15:46.562Z,86.10
2018-06-28T17:18:17.277Z,83.55
2018-06-28T17:20:47.850Z,81.28
2018-06-28T17:23:18.690Z,84.45
2018-06-28T17:25:49.736Z,83.55
2018-06-28T17:28:20.357Z,84.07
2018-06-28T17:30:51.317Z,84.62
2018-06-28T17:33:21.655Z,86.35
2018-06-28T17:35:52.289Z,83.37
2018-06-28T17:38:29.719Z,83.82
2018-06-28T17:41:00.003Z,82.45
2018-06-28T17:43:30.321Z,83.33
2018-06-28T17:46:00.650Z,89.47
2018-06-28T17:48:31.133Z,84.15
2018-06-28T17:51:01.742Z,83.62
2018-06-28T17:53:32.900Z,85.20
2018-06-28T17:56:03.034Z,85.10
2018-06-28T17:58:34.335Z,82.42
2018-06-28T18:01:06.947Z,83.42
2018-06-28T18:03:39.189Z,83.52
2018-06-28T18:06:11.058Z,83.22
2018-06-28T18:08:44.432Z,83.62
2018-06-28T18:11:16.954Z,83.75
2018-06-28T18:13:47.604Z,84.72
2018-06-28T18:16:18.050Z,92.17
2018-06-28T18:18:48.476Z,81.63
2018-06-28T18:21:19.164Z,83.67
2018-06-28T18:23:50.326Z,81.97
2018-06-28T18:26:20.536Z,82.53
2018-06-28T18:28:50.702Z,83.90
2018-06-28T18:31:21.168Z,82.13
2018-06-28T18:33:51.799Z,84.87
2018-06-28T18:36:22.041Z,87.27
2018-06-28T18:38:52.727Z,85.73
2018-06-28T18:41:23.332Z,90.20
2018-06-28T18:43:54.453Z,85.60
2018-06-28T18:46:24.856Z,85.43
2018-06-28T18:48:55.233Z,87.60
2018-06-28T18:51:26.393Z,81.57
2018-06-28T18:53:56.973Z,85.73
2018-06-28T18:56:28.158Z,84.50
2018-06-28T18:58:58.773Z,87.57
2018-06-28T19:01:28.929Z,89.17
2018-06-28T19:03:59.275Z,82.50
2018-06-28T19:06:31.216Z,83.33
2018-06-28T19:09:01.328Z,82.00
2018-06-28T19:11:31.487Z,82.63
2018-06-28T19:14:06.994Z,81.50
2018-06-28T19:16:42.677Z,83.10
2018-06-28T19:19:13.250Z,84.60
2018-06-28T19:21:48.668Z,83.93
2018-06-28T19:24:18.879Z,84.23
2018-06-28T19:26:49.499Z,85.57
2018-06-28T19:29:24.847Z,85.90
2018-06-28T19:32:00.235Z,83.63
2018-06-28T19:34:31.852Z,81.23
2018-06-28T19:37:02.328Z,84.20
2018-06-28T19:39:37.768Z,81.10
2018-06-28T19:42:13.414Z,83.80
2018-06-28T19:44:43.629Z,83.53
2018-06-28T19:47:14.118Z,82.80
2018-06-28T19:49:49.435Z,82.13
2018-06-28T19:52:24.981Z,83.07
2018-06-28T19:54:55.405Z,85.00
2018-06-28T19:57:25.883Z,80.77
2018-06-28T19:59:56.498Z,78.23
2018-06-28T20:02:32.033Z,82.30
2018-06-28T20:05:02.121Z,79.03
2018-06-28T20:07:32.920Z,81.97
2018-06-28T20:10:03.482Z,80.30
2018-06-28T20:12:38.881Z,80.87
2018-06-28T20:15:14.306Z,79.53
2018-06-28T20:18:01.096Z,81.67
2018-06-28T20:20:34.526Z,77.97
2018-06-28T20:23:05.454Z,77.07
2018-06-28T20:25:35.853Z,78.30
2018-06-28T20:28:11.541Z,78.47
2018-06-28T20:30:46.934Z,75.03
2018-06-28T20:33:23.135Z,77.07
2018-06-28T20:35:53.387Z,78.20
2018-06-28T20:38:23.655Z,78.83
2018-06-28T20:40:54.930Z,78.03
2018-06-28T20:43:26.218Z,75.03
2018-06-28T20:45:56.927Z,75.90
2018-06-28T20:48:28.490Z,75.20
2018-06-28T20:50:59.204Z,78.20
2018-06-28T20:53:34.208Z,76.17
2018-06-28T20:56:05.059Z,76.70
2018-06-28T20:58:37.449Z,77.57
2018-06-28T21:01:12.809Z,77.63
2018-06-28T21:03:43.036Z,75.90
2018-06-28T21:06:13.407Z,74.77
2018-06-28T21:08:44.239Z,77.10
2018-06-28T21:11:14.840Z,74.10
2018-06-28T21:13:45.451Z,75.70
2018-06-28T21:16:16.862Z,75.13
2018-06-28T21:18:47.965Z,74.57
2018-06-28T21:21:19.154Z,74.17
2018-06-28T21:23:50.181Z,76.10
2018-06-28T21:26:20.568Z,74.73
2018-06-28T21:28:52.064Z,74.00
2018-06-28T21:31:22.129Z,71.47
2018-06-28T21:33:52.762Z,69.60
2018-06-28T21:36:22.970Z,72.03
2018-06-28T21:38:53.317Z,75.67
2018-06-28T21:41:24.141Z,72.37
2018-06-28T21:43:54.286Z,75.57
2018-06-28T21:46:24.445Z,72.50
2018-06-28T21:48:56.239Z,73.00
2018-06-28T21:51:26.616Z,73.73
2018-06-28T21:53:57.382Z,74.40
2018-06-28T21:56:27.615Z,72.03
2018-06-28T21:58:58.309Z,70.90
2018-06-28T22:01:29.198Z,71.63
2018-06-28T22:03:59.578Z,72.77
2018-06-28T22:06:29.789Z,72.27
2018-06-28T22:09:00.077Z,71.93
2018-06-28T22:11:30.602Z,70.03
2018-06-28T22:14:00.930Z,74.53
2018-06-28T22:16:31.021Z,70.90
2018-06-28T22:19:01.217Z,74.20
2018-06-28T22:21:31.450Z,73.57
2018-06-28T22:24:02.363Z,72.70
2018-06-28T22:26:32.801Z,74.73
2018-06-28T22:29:05.282Z,77.67
2018-06-28T22:31:37.654Z,73.70
2018-06-28T22:34:08.500Z,77.43
2018-06-28T22:36:38.873Z,74.67
2018-06-28T22:39:12.033Z,70.63
2018-06-28T22:41:43.126Z,70.00
2018-06-28T22:44:13.943Z,71.27
2018-06-28T22:46:44.343Z,73.63
2018-06-28T22:49:14.366Z,71.67
2018-06-28T22:51:44.560Z,69.40
2018-06-28T22:54:14.978Z,72.23
2018-06-28T22:56:45.112Z,72.97
2018-06-28T22:59:15.341Z,69.73
2018-06-28T23:01:45.524Z,73.50
2018-06-28T23:04:15.641Z,70.23
2018-06-28T23:06:45.792Z,68.80
2018-06-28T23:09:15.977Z,69.23
2018-06-28T23:11:46.341Z,71.00
2018-06-28T23:14:16.757Z,71.10
2018-06-28T23:16:46.945Z,69.87
2018-06-28T23:19:17.080Z,69.10
2018-06-28T23:21:47.279Z,68.57
2018-06-28T23:24:17.331Z,72.27
2018-06-28T23:26:47.901Z,72.53
2018-06-28T23:29:17.863Z,74.07
2018-06-28T23:31:48.443Z,73.10
2018-06-28T23:34:19.021Z,72.60
2018-06-28T23:36:49.634Z,73.63
2018-06-28T23:39:19.773Z,72.27
2018-06-28T23:41:50.471Z,72.73
2018-06-28T23:44:27.584Z,70.97
2018-06-28T23:46:57.763Z,67.93
2018-06-28T23:49:28.112Z,70.27
2018-06-28T23:51:58.290Z,72.03
2018-06-28T23:54:28.874Z,71.03
2018-06-28T23:56:59.068Z,70.07
2018-06-28T23:59:29.333Z,70.63
